Exeter, ME

11:53 PM EST on February 27, 2017 (GMT -0500)
Stonyvale Farms | | Change Station

Elev 269 ft 44.95 °N, 69.12 °W | Updated 8 minutes ago

Mostly Cloudy
Mostly Cloudy
33.0 °F
Feels Like 33 °F
N
3.0
Wind Variable Wind from South
Gusts 4.0 mph

Today
High -- | Low -- °F
--% Chance of Precip.
Yesterday
High -- | Low -- °F
Precip. -- in
Pressure 30.29 in
Visibility 10.0 miles
Clouds Few 6000 ft
Mostly Cloudy 8500 ft
Windchill 33 °F
Dew Point 28 °F
Humidity 82%
Rainfall 0.00 in
Snow Depth Not available.
6:17 AM 5:21 PM
Waxing Crescent, 3% visible
METAR KBGR 280353Z 20003KT 10SM FEW060 BKN085 M01/M04 A3028 RMK AO2 SLP257 T10061044
Pressure 30.29 in
Visibility 10.0 miles
Clouds Few 6000 ft
Mostly Cloudy 8500 ft
Windchill 33 °F
Dew Point 28 °F
Humidity 82%
Rainfall 0.00 in
Snow Depth Not available.
6:17 AM 5:21 PM
Waxing Crescent, 3% visible
METAR KBGR 280353Z 20003KT 10SM FEW060 BKN085 M01/M04 A3028 RMK AO2 SLP257 T10061044

Get Your Daily Forecast Email!

Thanks for signing up!

Be on the lookout for a verification email in your inbox.

You'll start receiving the daily forecast at 8 AM.

×

10-Day Weather Forecast

Almanac

Astronomy

Feb. 27, 2017 Rise Set
Actual Time
Civil Twilight
Nautical Twilight
Astronomical Twilight
Moon
Length of Visible Light
Length of Day
Tomorrow will be .
, % of the Moon is Illuminated

Today's Extremes

State Highs State Lows

Community

WunderPhotos

Upload Photos

1,962,540 photos uploaded!

WunderBlog® & News

Nearby

Air Quality

  Air Quality AQ Index Pollutant
Not available.

Snow Depth

Station Depth Elevation

Earthquake Activity

City Distance Mag. Time & Date
Minimum magnitude displayed is 2.5.

Coastal Water Temperatures

Place Temperature

Stations

Nearby Weather Stations

Station Location Temp. Windchill Dew Point Humidity Wind Precip. Elev Updated Type
                   

Watches & Warnings

There are currently no watches in effect.